sensor_id;sensor_type;location;lat;lon;timestamp;temperature;humidity
44435;DHT22;30138;20.964;105.830;2022-07-29T00:00:24;32.50;99.90
44435;DHT22;30138;20.964;105.830;2022-07-29T00:05:32;32.50;99.90
44435;DHT22;30138;20.964;105.830;2022-07-29T00:10:40;32.50;99.90
44435;DHT22;30138;20.964;105.830;2022-07-29T00:15:50;32.50;99.90
44435;DHT22;30138;20.964;105.830;2022-07-29T00:20:58;32.50;99.90
44435;DHT22;30138;20.964;105.830;2022-07-29T00:26:05;32.50;99.90
44435;DHT22;30138;20.964;105.830;2022-07-29T00:31:15;32.50;99.90
44435;DHT22;30138;20.964;105.830;2022-07-29T00:36:26;32.50;99.90
44435;DHT22;30138;20.964;105.830;2022-07-29T00:41:33;32.50;99.90
44435;DHT22;30138;20.964;105.830;2022-07-29T00:46:43;32.50;99.90
44435;DHT22;30138;20.964;105.830;2022-07-29T00:51:52;32.50;99.90
44435;DHT22;30138;20.964;105.830;2022-07-29T00:57:01;32.60;99.90
44435;DHT22;30138;20.964;105.830;2022-07-29T01:02:10;32.60;99.90
44435;DHT22;30138;20.964;105.830;2022-07-29T01:07:18;32.60;99.90
44435;DHT22;30138;20.964;105.830;2022-07-29T01:12:27;32.60;99.90
44435;DHT22;30138;20.964;105.830;2022-07-29T01:17:43;32.60;99.90
44435;DHT22;30138;20.964;105.830;2022-07-29T01:29:02;32.60;99.90
44435;DHT22;30138;20.964;105.830;2022-07-29T01:34:18;32.70;99.90
44435;DHT22;30138;20.964;105.830;2022-07-29T01:39:31;32.60;99.90
44435;DHT22;30138;20.964;105.830;2022-07-29T01:44:52;32.60;99.90
44435;DHT22;30138;20.964;105.830;2022-07-29T01:50:03;32.60;99.90
44435;DHT22;30138;20.964;105.830;2022-07-29T01:55:15;32.60;99.90
44435;DHT22;30138;20.964;105.830;2022-07-29T02:00:25;32.60;99.90
44435;DHT22;30138;20.964;105.830;2022-07-29T02:05:33;32.60;99.90
44435;DHT22;30138;20.964;105.830;2022-07-29T02:10:44;32.60;99.90
44435;DHT22;30138;20.964;105.830;2022-07-29T02:15:56;32.60;99.90
44435;DHT22;30138;20.964;105.830;2022-07-29T02:21:04;32.60;99.90
44435;DHT22;30138;20.964;105.830;2022-07-29T02:26:12;32.60;99.90
44435;DHT22;30138;20.964;105.830;2022-07-29T02:31:26;32.70;99.90
44435;DHT22;30138;20.964;105.830;2022-07-29T02:36:37;32.70;99.90
44435;DHT22;30138;20.964;105.830;2022-07-29T02:41:48;32.80;99.90
44435;DHT22;30138;20.964;105.830;2022-07-29T02:47:04;32.80;99.90
44435;DHT22;30138;20.964;105.830;2022-07-29T02:52:21;32.80;99.90
44435;DHT22;30138;20.964;105.830;2022-07-29T02:57:34;32.80;99.90
44435;DHT22;30138;20.964;105.830;2022-07-29T03:02:51;32.80;99.90
44435;DHT22;30138;20.964;105.830;2022-07-29T03:08:04;32.80;99.90
44435;DHT22;30138;20.964;105.830;2022-07-29T03:13:14;32.80;99.90
44435;DHT22;30138;20.964;105.830;2022-07-29T03:18:23;32.80;99.90
44435;DHT22;30138;20.964;105.830;2022-07-29T03:23:31;32.80;99.90
44435;DHT22;30138;20.964;105.830;2022-07-29T03:28:39;32.80;99.90
44435;DHT22;30138;20.964;105.830;2022-07-29T03:33:48;32.80;99.90
44435;DHT22;30138;20.964;105.830;2022-07-29T03:38:57;32.90;99.90
44435;DHT22;30138;20.964;105.830;2022-07-29T03:44:05;32.90;99.90
44435;DHT22;30138;20.964;105.830;2022-07-29T03:49:16;32.90;99.90
44435;DHT22;30138;20.964;105.830;2022-07-29T03:54:24;32.90;99.90
44435;DHT22;30138;20.964;105.830;2022-07-29T03:59:33;32.90;99.90
44435;DHT22;30138;20.964;105.830;2022-07-29T04:04:43;33.00;99.90
44435;DHT22;30138;20.964;105.830;2022-07-29T04:09:51;33.00;99.90
44435;DHT22;30138;20.964;105.830;2022-07-29T04:15:00;33.00;99.90
44435;DHT22;30138;20.964;105.830;2022-07-29T04:20:10;33.00;99.90
44435;DHT22;30138;20.964;105.830;2022-07-29T04:25:17;33.00;99.90
44435;DHT22;30138;20.964;105.830;2022-07-29T04:30:25;33.00;99.60
44435;DHT22;30138;20.964;105.830;2022-07-29T04:35:38;33.00;99.40
44435;DHT22;30138;20.964;105.830;2022-07-29T04:40:45;33.00;99.60
44435;DHT22;30138;20.964;105.830;2022-07-29T04:45:54;33.00;99.30
44435;DHT22;30138;20.964;105.830;2022-07-29T04:51:03;33.10;99.10
44435;DHT22;30138;20.964;105.830;2022-07-29T04:56:11;33.10;99.00
44435;DHT22;30138;20.964;105.830;2022-07-29T05:01:18;33.20;99.40
44435;DHT22;30138;20.964;105.830;2022-07-29T05:06:29;33.10;99.60
44435;DHT22;30138;20.964;105.830;2022-07-29T05:11:36;33.20;99.50
44435;DHT22;30138;20.964;105.830;2022-07-29T05:16:45;33.20;99.30
44435;DHT22;30138;20.964;105.830;2022-07-29T05:21:56;33.20;99.40
44435;DHT22;30138;20.964;105.830;2022-07-29T05:27:05;33.20;99.00
44435;DHT22;30138;20.964;105.830;2022-07-29T05:32:12;33.30;99.30
44435;DHT22;30138;20.964;105.830;2022-07-29T05:37:22;33.30;99.20
44435;DHT22;30138;20.964;105.830;2022-07-29T05:42:30;33.30;99.10
44435;DHT22;30138;20.964;105.830;2022-07-29T05:47:38;33.30;98.40
44435;DHT22;30138;20.964;105.830;2022-07-29T05:52:49;33.40;98.70
44435;DHT22;30138;20.964;105.830;2022-07-29T05:57:57;33.40;98.40
44435;DHT22;30138;20.964;105.830;2022-07-29T06:03:05;33.40;98.30
44435;DHT22;30138;20.964;105.830;2022-07-29T06:08:15;33.40;97.80
44435;DHT22;30138;20.964;105.830;2022-07-29T06:13:24;33.40;97.80
44435;DHT22;30138;20.964;105.830;2022-07-29T06:18:32;33.50;97.40
44435;DHT22;30138;20.964;105.830;2022-07-29T06:23:41;33.50;97.00
44435;DHT22;30138;20.964;105.830;2022-07-29T06:28:50;33.50;96.60
44435;DHT22;30138;20.964;105.830;2022-07-29T06:33:58;33.50;96.80
44435;DHT22;30138;20.964;105.830;2022-07-29T06:39:09;33.50;97.40
44435;DHT22;30138;20.964;105.830;2022-07-29T06:44:16;33.60;98.00
44435;DHT22;30138;20.964;105.830;2022-07-29T06:49:24;33.60;98.20
44435;DHT22;30138;20.964;105.830;2022-07-29T06:54:34;33.60;98.20
44435;DHT22;30138;20.964;105.830;2022-07-29T06:59:42;33.60;98.30
44435;DHT22;30138;20.964;105.830;2022-07-29T07:04:50;33.60;98.20
44435;DHT22;30138;20.964;105.830;2022-07-29T07:10:00;33.60;98.20
44435;DHT22;30138;20.964;105.830;2022-07-29T07:15:08;33.70;97.40
44435;DHT22;30138;20.964;105.830;2022-07-29T07:20:16;33.70;97.20
44435;DHT22;30138;20.964;105.830;2022-07-29T07:25:25;33.70;97.40
44435;DHT22;30138;20.964;105.830;2022-07-29T07:30:33;33.80;97.40
44435;DHT22;30138;20.964;105.830;2022-07-29T07:35:41;33.80;97.50
44435;DHT22;30138;20.964;105.830;2022-07-29T07:40:50;33.80;98.00
44435;DHT22;30138;20.964;105.830;2022-07-29T07:45:58;33.80;97.50
44435;DHT22;30138;20.964;105.830;2022-07-29T07:51:06;33.80;96.70
44435;DHT22;30138;20.964;105.830;2022-07-29T07:56:16;33.90;97.30
44435;DHT22;30138;20.964;105.830;2022-07-29T08:01:24;33.90;97.40
44435;DHT22;30138;20.964;105.830;2022-07-29T08:06:32;33.90;97.60
44435;DHT22;30138;20.964;105.830;2022-07-29T08:11:42;33.90;97.50
44435;DHT22;30138;20.964;105.830;2022-07-29T08:16:49;33.90;97.40
44435;DHT22;30138;20.964;105.830;2022-07-29T08:21:57;33.90;97.60
44435;DHT22;30138;20.964;105.830;2022-07-29T08:27:07;33.90;97.50
44435;DHT22;30138;20.964;105.830;2022-07-29T08:32:15;34.00;97.40
44435;DHT22;30138;20.964;105.830;2022-07-29T08:37:23;34.00;97.10
44435;DHT22;30138;20.964;105.830;2022-07-29T08:42:32;34.00;97.30
44435;DHT22;30138;20.964;105.830;2022-07-29T08:47:40;34.00;97.30
44435;DHT22;30138;20.964;105.830;2022-07-29T08:52:50;34.00;97.70
44435;DHT22;30138;20.964;105.830;2022-07-29T08:58:01;34.10;97.90
44435;DHT22;30138;20.964;105.830;2022-07-29T09:03:10;34.10;97.90
44435;DHT22;30138;20.964;105.830;2022-07-29T09:08:22;34.10;97.90
44435;DHT22;30138;20.964;105.830;2022-07-29T09:13:32;34.10;97.40
44435;DHT22;30138;20.964;105.830;2022-07-29T09:18:44;34.10;97.00
44435;DHT22;30138;20.964;105.830;2022-07-29T09:24:04;34.10;96.70
44435;DHT22;30138;20.964;105.830;2022-07-29T09:29:18;34.10;97.40
44435;DHT22;30138;20.964;105.830;2022-07-29T09:34:29;34.10;96.40
44435;DHT22;30138;20.964;105.830;2022-07-29T09:39:38;34.10;97.20
44435;DHT22;30138;20.964;105.830;2022-07-29T09:44:51;34.10;97.40
44435;DHT22;30138;20.964;105.830;2022-07-29T09:49:59;34.10;97.60
44435;DHT22;30138;20.964;105.830;2022-07-29T09:55:08;34.10;97.50
44435;DHT22;30138;20.964;105.830;2022-07-29T10:00:19;34.10;96.80
44435;DHT22;30138;20.964;105.830;2022-07-29T10:05:29;34.10;97.40
44435;DHT22;30138;20.964;105.830;2022-07-29T10:10:39;34.10;97.70
44435;DHT22;30138;20.964;105.830;2022-07-29T10:15:48;34.10;97.60
44435;DHT22;30138;20.964;105.830;2022-07-29T10:20:57;34.10;97.60
44435;DHT22;30138;20.964;105.830;2022-07-29T10:26:05;34.10;97.50
44435;DHT22;30138;20.964;105.830;2022-07-29T10:31:21;34.10;97.10
44435;DHT22;30138;20.964;105.830;2022-07-29T10:36:47;34.10;97.60
44435;DHT22;30138;20.964;105.830;2022-07-29T10:42:13;34.20;97.80
44435;DHT22;30138;20.964;105.830;2022-07-29T10:47:27;34.10;96.20
44435;DHT22;30138;20.964;105.830;2022-07-29T10:52:52;34.10;97.00
44435;DHT22;30138;20.964;105.830;2022-07-29T10:58:16;34.10;97.50
44435;DHT22;30138;20.964;105.830;2022-07-29T11:03:45;34.10;97.50
44435;DHT22;30138;20.964;105.830;2022-07-29T11:14:58;34.10;97.60
44435;DHT22;30138;20.964;105.830;2022-07-29T11:20:35;34.10;97.40
44435;DHT22;30138;20.964;105.830;2022-07-29T11:25:45;34.10;98.00
44435;DHT22;30138;20.964;105.830;2022-07-29T11:30:54;34.10;98.20
44435;DHT22;30138;20.964;105.830;2022-07-29T11:36:13;34.10;98.20
44435;DHT22;30138;20.964;105.830;2022-07-29T11:41:23;34.10;98.00
44435;DHT22;30138;20.964;105.830;2022-07-29T11:46:48;34.10;97.90
44435;DHT22;30138;20.964;105.830;2022-07-29T11:51:59;34.10;98.00
44435;DHT22;30138;20.964;105.830;2022-07-29T11:57:08;34.10;98.10
44435;DHT22;30138;20.964;105.830;2022-07-29T12:02:16;34.10;98.40
44435;DHT22;30138;20.964;105.830;2022-07-29T12:07:30;34.10;98.30
44435;DHT22;30138;20.964;105.830;2022-07-29T12:12:39;34.10;98.20
44435;DHT22;30138;20.964;105.830;2022-07-29T12:17:47;34.10;98.10
44435;DHT22;30138;20.964;105.830;2022-07-29T12:22:57;34.10;98.00
44435;DHT22;30138;20.964;105.830;2022-07-29T12:28:05;34.10;98.20
44435;DHT22;30138;20.964;105.830;2022-07-29T12:33:16;34.10;98.00
44435;DHT22;30138;20.964;105.830;2022-07-29T12:38:29;34.10;98.10
44435;DHT22;30138;20.964;105.830;2022-07-29T12:43:38;34.10;98.00
44435;DHT22;30138;20.964;105.830;2022-07-29T12:48:53;34.10;98.30
44435;DHT22;30138;20.964;105.830;2022-07-29T12:54:07;34.10;98.20
44435;DHT22;30138;20.964;105.830;2022-07-29T12:59:17;34.10;98.20
44435;DHT22;30138;20.964;105.830;2022-07-29T13:04:27;34.10;98.20
44435;DHT22;30138;20.964;105.830;2022-07-29T13:09:40;34.00;98.10
44435;DHT22;30138;20.964;105.830;2022-07-29T13:14:50;34.00;98.00
44435;DHT22;30138;20.964;105.830;2022-07-29T13:20:06;34.00;97.90
44435;DHT22;30138;20.964;105.830;2022-07-29T13:25:25;34.00;97.90
44435;DHT22;30138;20.964;105.830;2022-07-29T13:30:33;34.00;97.90
44435;DHT22;30138;20.964;105.830;2022-07-29T13:35:40;34.00;98.10
44435;DHT22;30138;20.964;105.830;2022-07-29T13:40:50;34.00;97.70
44435;DHT22;30138;20.964;105.830;2022-07-29T13:45:57;34.00;97.60
44435;DHT22;30138;20.964;105.830;2022-07-29T13:51:05;34.00;97.50
44435;DHT22;30138;20.964;105.830;2022-07-29T13:56:14;34.00;97.50
44435;DHT22;30138;20.964;105.830;2022-07-29T14:01:22;34.00;97.30
44435;DHT22;30138;20.964;105.830;2022-07-29T14:06:30;34.00;97.30
44435;DHT22;30138;20.964;105.830;2022-07-29T14:11:40;34.00;97.30
44435;DHT22;30138;20.964;105.830;2022-07-29T14:16:49;34.00;97.30
44435;DHT22;30138;20.964;105.830;2022-07-29T14:21:56;33.90;97.40
44435;DHT22;30138;20.964;105.830;2022-07-29T14:27:07;34.00;97.50
44435;DHT22;30138;20.964;105.830;2022-07-29T14:32:16;33.90;97.40
44435;DHT22;30138;20.964;105.830;2022-07-29T14:37:23;33.90;97.60
44435;DHT22;30138;20.964;105.830;2022-07-29T14:42:34;33.90;97.70
44435;DHT22;30138;20.964;105.830;2022-07-29T14:47:42;33.90;97.80
44435;DHT22;30138;20.964;105.830;2022-07-29T14:52:50;33.90;97.80
44435;DHT22;30138;20.964;105.830;2022-07-29T14:57:59;33.90;98.20
44435;DHT22;30138;20.964;105.830;2022-07-29T15:03:07;33.90;97.90
44435;DHT22;30138;20.964;105.830;2022-07-29T15:08:14;33.90;98.00
44435;DHT22;30138;20.964;105.830;2022-07-29T15:13:24;33.80;98.00
44435;DHT22;30138;20.964;105.830;2022-07-29T15:18:33;33.80;98.10
44435;DHT22;30138;20.964;105.830;2022-07-29T15:23:42;33.80;98.10
44435;DHT22;30138;20.964;105.830;2022-07-29T15:28:52;33.90;98.20
44435;DHT22;30138;20.964;105.830;2022-07-29T15:34:00;33.80;98.20
44435;DHT22;30138;20.964;105.830;2022-07-29T15:39:09;33.80;98.30
44435;DHT22;30138;20.964;105.830;2022-07-29T15:44:19;33.80;98.30
44435;DHT22;30138;20.964;105.830;2022-07-29T15:49:27;33.80;98.30
44435;DHT22;30138;20.964;105.830;2022-07-29T15:54:36;33.80;98.40
44435;DHT22;30138;20.964;105.830;2022-07-29T15:59:46;33.80;98.40
44435;DHT22;30138;20.964;105.830;2022-07-29T16:04:55;33.80;98.40
44435;DHT22;30138;20.964;105.830;2022-07-29T16:10:04;33.80;98.50
44435;DHT22;30138;20.964;105.830;2022-07-29T16:15:14;33.80;98.60
44435;DHT22;30138;20.964;105.830;2022-07-29T16:20:22;33.70;98.60
44435;DHT22;30138;20.964;105.830;2022-07-29T16:25:30;33.70;98.60
44435;DHT22;30138;20.964;105.830;2022-07-29T16:30:40;33.70;98.70
44435;DHT22;30138;20.964;105.830;2022-07-29T16:35:49;33.80;99.10
44435;DHT22;30138;20.964;105.830;2022-07-29T16:40:57;33.80;98.80
44435;DHT22;30138;20.964;105.830;2022-07-29T16:46:07;33.70;98.80
44435;DHT22;30138;20.964;105.830;2022-07-29T16:51:16;33.80;99.00
44435;DHT22;30138;20.964;105.830;2022-07-29T16:56:23;33.70;99.00
44435;DHT22;30138;20.964;105.830;2022-07-29T17:01:33;33.70;99.10
44435;DHT22;30138;20.964;105.830;2022-07-29T17:06:41;33.70;99.00
44435;DHT22;30138;20.964;105.830;2022-07-29T17:11:52;33.70;99.10
44435;DHT22;30138;20.964;105.830;2022-07-29T17:17:01;33.70;99.10
44435;DHT22;30138;20.964;105.830;2022-07-29T17:22:09;33.70;99.00
44435;DHT22;30138;20.964;105.830;2022-07-29T17:27:18;33.70;99.00
44435;DHT22;30138;20.964;105.830;2022-07-29T17:32:27;33.70;99.00
44435;DHT22;30138;20.964;105.830;2022-07-29T17:37:38;33.70;99.10
44435;DHT22;30138;20.964;105.830;2022-07-29T17:42:46;33.70;99.10
44435;DHT22;30138;20.964;105.830;2022-07-29T17:47:56;33.70;99.20
44435;DHT22;30138;20.964;105.830;2022-07-29T17:53:06;33.70;99.20
44435;DHT22;30138;20.964;105.830;2022-07-29T17:58:14;33.60;99.10
44435;DHT22;30138;20.964;105.830;2022-07-29T18:03:24;33.60;99.10
44435;DHT22;30138;20.964;105.830;2022-07-29T18:08:32;33.70;99.30
44435;DHT22;30138;20.964;105.830;2022-07-29T18:13:41;33.70;99.20
44435;DHT22;30138;20.964;105.830;2022-07-29T18:18:51;33.70;99.20
44435;DHT22;30138;20.964;105.830;2022-07-29T18:24:02;33.60;99.20
44435;DHT22;30138;20.964;105.830;2022-07-29T18:29:10;33.60;99.20
44435;DHT22;30138;20.964;105.830;2022-07-29T18:34:21;33.60;99.30
44435;DHT22;30138;20.964;105.830;2022-07-29T18:39:28;33.60;99.30
44435;DHT22;30138;20.964;105.830;2022-07-29T18:44:36;33.60;99.40
44435;DHT22;30138;20.964;105.830;2022-07-29T18:49:45;33.60;99.40
44435;DHT22;30138;20.964;105.830;2022-07-29T18:54:53;33.60;99.40
44435;DHT22;30138;20.964;105.830;2022-07-29T19:00:01;33.60;99.40
44435;DHT22;30138;20.964;105.830;2022-07-29T19:05:11;33.60;99.40
44435;DHT22;30138;20.964;105.830;2022-07-29T19:10:20;33.60;99.40
44435;DHT22;30138;20.964;105.830;2022-07-29T19:15:28;33.60;99.40
44435;DHT22;30138;20.964;105.830;2022-07-29T19:20:38;33.60;99.50
44435;DHT22;30138;20.964;105.830;2022-07-29T19:25:47;33.60;99.50
44435;DHT22;30138;20.964;105.830;2022-07-29T19:30:54;33.50;99.40
44435;DHT22;30138;20.964;105.830;2022-07-29T19:36:05;33.60;99.50
44435;DHT22;30138;20.964;105.830;2022-07-29T19:41:13;33.50;99.40
44435;DHT22;30138;20.964;105.830;2022-07-29T19:46:21;33.50;99.80
44435;DHT22;30138;20.964;105.830;2022-07-29T19:51:33;33.50;99.50
44435;DHT22;30138;20.964;105.830;2022-07-29T19:56:40;33.50;99.50
44435;DHT22;30138;20.964;105.830;2022-07-29T20:01:48;33.50;99.60
44435;DHT22;30138;20.964;105.830;2022-07-29T20:06:58;33.50;99.50
44435;DHT22;30138;20.964;105.830;2022-07-29T20:12:07;33.40;99.50
44435;DHT22;30138;20.964;105.830;2022-07-29T20:17:15;33.40;99.50
44435;DHT22;30138;20.964;105.830;2022-07-29T20:22:26;33.40;99.50
44435;DHT22;30138;20.964;105.830;2022-07-29T20:27:34;33.40;99.40
44435;DHT22;30138;20.964;105.830;2022-07-29T20:32:42;33.40;99.50
44435;DHT22;30138;20.964;105.830;2022-07-29T20:37:51;33.40;99.50
44435;DHT22;30138;20.964;105.830;2022-07-29T20:42:59;33.40;99.50
44435;DHT22;30138;20.964;105.830;2022-07-29T20:48:06;33.40;99.60
44435;DHT22;30138;20.964;105.830;2022-07-29T20:53:17;33.40;99.70
44435;DHT22;30138;20.964;105.830;2022-07-29T20:58:25;33.40;99.70
44435;DHT22;30138;20.964;105.830;2022-07-29T21:03:34;33.40;99.80
44435;DHT22;30138;20.964;105.830;2022-07-29T21:08:45;33.30;99.70
44435;DHT22;30138;20.964;105.830;2022-07-29T21:13:52;33.30;99.60
44435;DHT22;30138;20.964;105.830;2022-07-29T21:19:01;33.30;99.40
44435;DHT22;30138;20.964;105.830;2022-07-29T21:24:11;33.30;99.30
44435;DHT22;30138;20.964;105.830;2022-07-29T21:29:18;33.30;99.10
44435;DHT22;30138;20.964;105.830;2022-07-29T21:34:26;33.30;98.80
44435;DHT22;30138;20.964;105.830;2022-07-29T21:39:36;33.30;98.40
44435;DHT22;30138;20.964;105.830;2022-07-29T21:44:44;33.20;97.90
44435;DHT22;30138;20.964;105.830;2022-07-29T21:49:52;33.20;97.80
44435;DHT22;30138;20.964;105.830;2022-07-29T21:55:02;33.20;97.80
44435;DHT22;30138;20.964;105.830;2022-07-29T22:00:11;33.20;97.60
44435;DHT22;30138;20.964;105.830;2022-07-29T22:05:20;33.20;97.20
44435;DHT22;30138;20.964;105.830;2022-07-29T22:10:30;33.20;96.70
44435;DHT22;30138;20.964;105.830;2022-07-29T22:15:39;33.20;96.30
44435;DHT22;30138;20.964;105.830;2022-07-29T22:20:46;33.20;95.70
44435;DHT22;30138;20.964;105.830;2022-07-29T22:25:56;33.10;95.10
44435;DHT22;30138;20.964;105.830;2022-07-29T22:31:06;33.10;94.50
44435;DHT22;30138;20.964;105.830;2022-07-29T22:36:14;33.10;93.90
44435;DHT22;30138;20.964;105.830;2022-07-29T22:41:23;33.10;93.50
44435;DHT22;30138;20.964;105.830;2022-07-29T22:46:32;33.00;93.20
44435;DHT22;30138;20.964;105.830;2022-07-29T22:51:41;33.00;93.10
44435;DHT22;30138;20.964;105.830;2022-07-29T22:56:50;33.00;92.90
44435;DHT22;30138;20.964;105.830;2022-07-29T23:01:58;33.00;92.80
44435;DHT22;30138;20.964;105.830;2022-07-29T23:07:05;33.00;92.70
44435;DHT22;30138;20.964;105.830;2022-07-29T23:12:15;33.00;92.40
44435;DHT22;30138;20.964;105.830;2022-07-29T23:17:23;33.00;92.20
44435;DHT22;30138;20.964;105.830;2022-07-29T23:22:31;33.00;92.20
44435;DHT22;30138;20.964;105.830;2022-07-29T23:27:40;33.00;92.20
44435;DHT22;30138;20.964;105.830;2022-07-29T23:32:49;33.00;92.20
44435;DHT22;30138;20.964;105.830;2022-07-29T23:37:57;32.90;92.20
44435;DHT22;30138;20.964;105.830;2022-07-29T23:43:06;32.90;92.20
44435;DHT22;30138;20.964;105.830;2022-07-29T23:48:14;32.90;92.20
44435;DHT22;30138;20.964;105.830;2022-07-29T23:53:21;32.90;92.20
44435;DHT22;30138;20.964;105.830;2022-07-29T23:58:32;32.90;92.20
